Terminal Aerodrome Forecast
Issued by NWS

Current Version | Previous Version | Text Only | Print | Product List | Glossary On
Versions: 1 2 3 4 5 6 7 8 9 10 11 12 13 14 15 16 17 18 19 20 21 22 23 24 25
000
FTUS46 KMTR 290317 AAA
TAFSFO
TAF AMD
KSFO 290317Z 2903/3006 30013KT P6SM FEW180
     FM290400 29010KT P6SM SKC
     FM291000 29005KT P6SM FEW010
     FM291600 04005KT P6SM SKC
     FM292100 31016KT P6SM SKC
     FM300400 29010KT P6SM SKC=

USA.gov is the U.S. government's official web portal to all federal, state and local government web resources and services.